sensor_id;sensor_type;location;lat;lon;timestamp;pressure;altitude;pressure_sealevel;temperature;humidity
14295;BME280;7231;59.370;18.016;2023-08-30T00:00:01;100562.13;;;16.30;91.53
14295;BME280;7231;59.370;18.016;2023-08-30T00:02:29;100551.53;;;16.30;91.38
14295;BME280;7231;59.370;18.016;2023-08-30T00:04:58;100544.50;;;16.29;91.37
14295;BME280;7231;59.370;18.016;2023-08-30T00:07:28;100541.84;;;16.28;91.49
14295;BME280;7231;59.370;18.016;2023-08-30T00:09:55;100540.09;;;16.28;91.27
14295;BME280;7231;59.370;18.016;2023-08-30T00:12:24;100549.78;;;16.29;91.64
14295;BME280;7231;59.370;18.016;2023-08-30T00:14:52;100540.09;;;16.28;91.47
14295;BME280;7231;59.370;18.016;2023-08-30T00:17:20;100555.06;;;16.24;91.52
14295;BME280;7231;59.370;18.016;2023-08-30T00:19:48;100549.78;;;16.20;91.67
14295;BME280;7231;59.370;18.016;2023-08-30T00:22:16;100544.47;;;16.12;91.99
14295;BME280;7231;59.370;18.016;2023-08-30T00:24:46;100533.91;;;16.08;92.19
14295;BME280;7231;59.370;18.016;2023-08-30T00:27:14;100533.00;;;16.03;92.36
14295;BME280;7231;59.370;18.016;2023-08-30T00:29:42;100524.19;;;16.04;92.44
14295;BME280;7231;59.370;18.016;2023-08-30T00:32:10;100525.97;;;16.05;92.68
14295;BME280;7231;59.370;18.016;2023-08-30T00:34:38;100497.75;;;15.87;92.65
14295;BME280;7231;59.370;18.016;2023-08-30T00:37:06;100524.19;;;16.01;92.75
14295;BME280;7231;59.370;18.016;2023-08-30T00:39:37;100525.06;;;15.97;93.16
14295;BME280;7231;59.370;18.016;2023-08-30T00:42:06;100521.56;;;15.96;93.22
14295;BME280;7231;59.370;18.016;2023-08-30T00:44:34;100525.06;;;15.97;93.21
14295;BME280;7231;59.370;18.016;2023-08-30T00:47:03;100530.38;;;15.97;93.32
14295;BME280;7231;59.370;18.016;2023-08-30T00:49:31;100519.78;;;15.90;93.25
14295;BME280;7231;59.370;18.016;2023-08-30T00:52:01;100516.25;;;15.90;93.66
14295;BME280;7231;59.370;18.016;2023-08-30T00:54:30;100513.59;;;15.88;93.87
14295;BME280;7231;59.370;18.016;2023-08-30T00:57:00;100497.72;;;15.73;94.17
14295;BME280;7231;59.370;18.016;2023-08-30T00:59:32;100514.50;;;15.89;94.35
14295;BME280;7231;59.370;18.016;2023-08-30T01:02:01;100514.50;;;15.90;94.13
14295;BME280;7231;59.370;18.016;2023-08-30T01:04:29;100511.84;;;15.87;94.31
14295;BME280;7231;59.370;18.016;2023-08-30T01:06:57;100515.38;;;15.97;94.22
14295;BME280;7231;59.370;18.016;2023-08-30T01:09:25;100516.25;;;15.98;94.18
14295;BME280;7231;59.370;18.016;2023-08-30T01:11:57;100507.44;;;15.97;94.59
14295;BME280;7231;59.370;18.016;2023-08-30T01:14:35;100487.16;;;15.93;94.50
14295;BME280;7231;59.370;18.016;2023-08-30T01:17:06;100513.63;;;16.02;94.44
14295;BME280;7231;59.370;18.016;2023-08-30T01:19:42;100520.69;;;16.05;94.65
14295;BME280;7231;59.370;18.016;2023-08-30T01:22:17;100529.50;;;16.08;94.39
14295;BME280;7231;59.370;18.016;2023-08-30T01:24:56;100494.22;;;15.86;94.42
14295;BME280;7231;59.370;18.016;2023-08-30T01:27:29;100495.97;;;15.89;94.22
14295;BME280;7231;59.370;18.016;2023-08-30T01:29:59;100526.84;;;16.10;94.11
14295;BME280;7231;59.370;18.016;2023-08-30T01:32:28;100526.84;;;16.08;94.26
14295;BME280;7231;59.370;18.016;2023-08-30T01:34:57;100527.72;;;16.09;94.15
14295;BME280;7231;59.370;18.016;2023-08-30T01:37:26;100509.22;;;16.00;94.33
14295;BME280;7231;59.370;18.016;2023-08-30T01:39:56;100521.56;;;16.11;94.41
14295;BME280;7231;59.370;18.016;2023-08-30T01:42:25;100495.09;;;15.98;94.61
14295;BME280;7231;59.370;18.016;2023-08-30T01:44:56;100493.34;;;15.98;94.87
14295;BME280;7231;59.370;18.016;2023-08-30T01:47:27;100517.16;;;16.12;94.89
14295;BME280;7231;59.370;18.016;2023-08-30T01:49:56;100519.81;;;16.15;94.83
14295;BME280;7231;59.370;18.016;2023-08-30T01:52:25;100530.38;;;16.13;95.14
14295;BME280;7231;59.370;18.016;2023-08-30T01:54:54;100527.72;;;16.12;95.30
14295;BME280;7231;59.370;18.016;2023-08-30T01:57:22;100533.03;;;16.13;95.28
14295;BME280;7231;59.370;18.016;2023-08-30T01:59:50;100534.78;;;16.13;95.28
14295;BME280;7231;59.370;18.016;2023-08-30T02:02:20;100529.50;;;16.13;95.58
14295;BME280;7231;59.370;18.016;2023-08-30T02:04:48;100526.84;;;16.11;95.76
14295;BME280;7231;59.370;18.016;2023-08-30T02:07:20;100518.91;;;16.10;95.91
14295;BME280;7231;59.370;18.016;2023-08-30T02:09:56;100510.09;;;16.08;96.20
14295;BME280;7231;59.370;18.016;2023-08-30T02:12:30;100522.44;;;16.09;96.02
14295;BME280;7231;59.370;18.016;2023-08-30T02:15:01;100514.50;;;16.06;96.12
14295;BME280;7231;59.370;18.016;2023-08-30T02:17:31;100484.53;;;15.88;96.61
14295;BME280;7231;59.370;18.016;2023-08-30T02:19:59;100513.63;;;16.07;96.81
14295;BME280;7231;59.370;18.016;2023-08-30T02:22:27;100477.47;;;15.87;96.89
14295;BME280;7231;59.370;18.016;2023-08-30T02:24:55;100509.22;;;15.95;96.89
14295;BME280;7231;59.370;18.016;2023-08-30T02:27:24;100508.31;;;15.91;97.38
14295;BME280;7231;59.370;18.016;2023-08-30T02:29:52;100424.56;;;15.43;97.75
14295;BME280;7231;59.370;18.016;2023-08-30T02:32:20;100500.38;;;15.93;98.77
14295;BME280;7231;59.370;18.016;2023-08-30T02:34:51;100502.16;;;15.91;99.18
14295;BME280;7231;59.370;18.016;2023-08-30T02:37:20;100503.03;;;15.91;99.36
14295;BME280;7231;59.370;18.016;2023-08-30T02:39:48;100511.84;;;15.90;99.97
14295;BME280;7231;59.370;18.016;2023-08-30T02:42:16;100506.56;;;15.89;100.00
14295;BME280;7231;59.370;18.016;2023-08-30T02:44:44;100501.25;;;15.87;100.00
14295;BME280;7231;59.370;18.016;2023-08-30T02:47:12;100508.31;;;15.88;100.00
14295;BME280;7231;59.370;18.016;2023-08-30T02:49:40;100489.78;;;15.76;100.00
14295;BME280;7231;59.370;18.016;2023-08-30T02:52:09;100505.66;;;15.84;100.00
14295;BME280;7231;59.370;18.016;2023-08-30T02:54:37;100499.50;;;15.80;100.00
14295;BME280;7231;59.370;18.016;2023-08-30T02:57:05;100487.16;;;15.73;100.00
14295;BME280;7231;59.370;18.016;2023-08-30T02:59:33;100486.28;;;15.76;100.00
14295;BME280;7231;59.370;18.016;2023-08-30T03:02:01;100491.56;;;15.76;100.00
14295;BME280;7231;59.370;18.016;2023-08-30T03:04:29;100488.91;;;15.74;100.00
14295;BME280;7231;59.370;18.016;2023-08-30T03:06:57;100495.97;;;15.74;100.00
14295;BME280;7231;59.370;18.016;2023-08-30T03:09:26;100495.09;;;15.75;100.00
14295;BME280;7231;59.370;18.016;2023-08-30T03:11:54;100487.16;;;15.72;100.00
14295;BME280;7231;59.370;18.016;2023-08-30T03:14:22;100481.88;;;15.72;100.00
14295;BME280;7231;59.370;18.016;2023-08-30T03:16:50;100476.56;;;15.70;100.00
14295;BME280;7231;59.370;18.016;2023-08-30T03:19:18;100482.75;;;15.71;100.00
14295;BME280;7231;59.370;18.016;2023-08-30T03:21:46;100474.81;;;15.69;100.00
14295;BME280;7231;59.370;18.016;2023-08-30T03:24:14;100470.41;;;15.68;100.00
14295;BME280;7231;59.370;18.016;2023-08-30T03:26:44;100453.66;;;15.69;100.00
14295;BME280;7231;59.370;18.016;2023-08-30T03:29:12;100448.38;;;15.68;100.00
14295;BME280;7231;59.370;18.016;2023-08-30T03:31:40;100458.94;;;15.66;100.00
14295;BME280;7231;59.370;18.016;2023-08-30T03:34:09;100456.31;;;15.63;100.00
14295;BME280;7231;59.370;18.016;2023-08-30T03:36:38;100461.59;;;15.63;100.00
14295;BME280;7231;59.370;18.016;2023-08-30T03:39:06;100464.22;;;15.65;100.00
14295;BME280;7231;59.370;18.016;2023-08-30T03:41:34;100469.53;;;15.65;100.00
14295;BME280;7231;59.370;18.016;2023-08-30T03:44:03;100472.16;;;15.65;100.00
14295;BME280;7231;59.370;18.016;2023-08-30T03:46:31;100467.75;;;15.65;100.00
14295;BME280;7231;59.370;18.016;2023-08-30T03:48:59;100462.47;;;15.65;100.00
14295;BME280;7231;59.370;18.016;2023-08-30T03:51:27;100466.88;;;15.66;100.00
14295;BME280;7231;59.370;18.016;2023-08-30T03:53:56;100458.94;;;15.66;100.00
14295;BME280;7231;59.370;18.016;2023-08-30T03:56:24;100450.13;;;15.66;100.00
14295;BME280;7231;59.370;18.016;2023-08-30T03:58:52;100452.78;;;15.66;100.00
14295;BME280;7231;59.370;18.016;2023-08-30T04:01:21;100444.84;;;15.66;100.00
14295;BME280;7231;59.370;18.016;2023-08-30T04:03:49;100449.25;;;15.65;100.00
14295;BME280;7231;59.370;18.016;2023-08-30T04:06:17;100448.38;;;15.63;100.00
14295;BME280;7231;59.370;18.016;2023-08-30T04:08:45;100444.84;;;15.61;100.00
14295;BME280;7231;59.370;18.016;2023-08-30T04:11:13;100451.91;;;15.62;100.00
14295;BME280;7231;59.370;18.016;2023-08-30T04:13:41;100310.88;;;14.78;100.00
14295;BME280;7231;59.370;18.016;2023-08-30T04:16:09;100436.03;;;15.56;100.00
14295;BME280;7231;59.370;18.016;2023-08-30T04:18:38;100446.59;;;15.56;100.00
14295;BME280;7231;59.370;18.016;2023-08-30T04:21:06;100447.53;;;15.60;100.00
14295;BME280;7231;59.370;18.016;2023-08-30T04:23:35;100436.03;;;15.61;100.00
14295;BME280;7231;59.370;18.016;2023-08-30T04:26:03;100431.63;;;15.63;100.00
14295;BME280;7231;59.370;18.016;2023-08-30T04:28:31;100429.88;;;15.63;100.00
14295;BME280;7231;59.370;18.016;2023-08-30T04:30:59;100418.41;;;15.56;100.00
14295;BME280;7231;59.370;18.016;2023-08-30T04:33:27;100435.16;;;15.62;100.00
14295;BME280;7231;59.370;18.016;2023-08-30T04:35:56;100395.50;;;15.42;100.00
14295;BME280;7231;59.370;18.016;2023-08-30T04:38:27;100427.25;;;15.57;100.00
14295;BME280;7231;59.370;18.016;2023-08-30T04:40:57;100433.41;;;15.67;100.00
14295;BME280;7231;59.370;18.016;2023-08-30T04:43:26;100429.00;;;15.69;100.00
14295;BME280;7231;59.370;18.016;2023-08-30T04:45:54;100424.59;;;15.65;100.00
14295;BME280;7231;59.370;18.016;2023-08-30T04:48:22;100422.81;;;15.70;100.00
14295;BME280;7231;59.370;18.016;2023-08-30T04:51:00;100421.06;;;15.73;100.00
14295;BME280;7231;59.370;18.016;2023-08-30T04:53:28;100422.84;;;15.74;100.00
14295;BME280;7231;59.370;18.016;2023-08-30T04:55:56;100417.53;;;15.71;100.00
14295;BME280;7231;59.370;18.016;2023-08-30T04:58:24;100397.28;;;15.61;100.00
14295;BME280;7231;59.370;18.016;2023-08-30T05:00:52;100424.59;;;15.77;100.00
14295;BME280;7231;59.370;18.016;2023-08-30T05:03:20;100417.53;;;15.80;100.00
14295;BME280;7231;59.370;18.016;2023-08-30T05:05:48;100422.84;;;15.82;100.00
14295;BME280;7231;59.370;18.016;2023-08-30T05:08:17;100406.97;;;15.74;100.00
14295;BME280;7231;59.370;18.016;2023-08-30T05:10:45;100427.25;;;15.87;100.00
14295;BME280;7231;59.370;18.016;2023-08-30T05:13:16;100401.69;;;15.79;100.00
14295;BME280;7231;59.370;18.016;2023-08-30T05:15:44;100421.06;;;15.95;100.00
14295;BME280;7231;59.370;18.016;2023-08-30T05:18:12;100425.47;;;15.97;100.00
14295;BME280;7231;59.370;18.016;2023-08-30T05:20:40;100415.78;;;15.99;100.00
14295;BME280;7231;59.370;18.016;2023-08-30T05:23:08;100404.31;;;15.96;100.00
14295;BME280;7231;59.370;18.016;2023-08-30T05:25:37;100406.09;;;16.00;100.00
14295;BME280;7231;59.370;18.016;2023-08-30T05:28:05;100411.38;;;16.01;100.00
14295;BME280;7231;59.370;18.016;2023-08-30T05:30:33;100407.84;;;16.04;100.00
14295;BME280;7231;59.370;18.016;2023-08-30T05:33:02;100406.06;;;16.06;100.00
14295;BME280;7231;59.370;18.016;2023-08-30T05:35:30;100408.72;;;16.09;100.00
14295;BME280;7231;59.370;18.016;2023-08-30T05:37:58;100388.44;;;16.05;100.00
14295;BME280;7231;59.370;18.016;2023-08-30T05:40:26;100400.78;;;16.12;100.00
14295;BME280;7231;59.370;18.016;2023-08-30T05:42:55;100377.88;;;16.02;100.00
14295;BME280;7231;59.370;18.016;2023-08-30T05:45:23;100373.47;;;16.02;100.00
14295;BME280;7231;59.370;18.016;2023-08-30T05:47:51;100387.53;;;16.15;100.00
14295;BME280;7231;59.370;18.016;2023-08-30T05:50:19;100384.00;;;16.16;100.00
14295;BME280;7231;59.370;18.016;2023-08-30T05:52:47;100390.19;;;16.15;100.00
14295;BME280;7231;59.370;18.016;2023-08-30T05:55:15;100391.06;;;16.15;100.00
14295;BME280;7231;59.370;18.016;2023-08-30T05:57:43;100382.25;;;16.16;100.00
14295;BME280;7231;59.370;18.016;2023-08-30T06:00:13;100385.78;;;16.15;100.00
14295;BME280;7231;59.370;18.016;2023-08-30T06:02:41;100390.19;;;16.15;100.00
14295;BME280;7231;59.370;18.016;2023-08-30T06:05:09;100366.41;;;16.06;100.00
14295;BME280;7231;59.370;18.016;2023-08-30T06:07:37;100391.06;;;16.17;100.00
14295;BME280;7231;59.370;18.016;2023-08-30T06:10:06;100391.94;;;16.19;100.00
14295;BME280;7231;59.370;18.016;2023-08-30T06:12:34;100397.22;;;16.22;100.00
14295;BME280;7231;59.370;18.016;2023-08-30T06:15:02;100386.66;;;16.22;100.00
14295;BME280;7231;59.370;18.016;2023-08-30T06:17:32;100376.06;;;16.19;100.00
14295;BME280;7231;59.370;18.016;2023-08-30T06:20:00;100382.22;;;16.24;100.00
14295;BME280;7231;59.370;18.016;2023-08-30T06:22:29;100379.59;;;16.27;100.00
14295;BME280;7231;59.370;18.016;2023-08-30T06:24:57;100376.03;;;16.34;100.00
14295;BME280;7231;59.370;18.016;2023-08-30T06:27:25;100367.19;;;16.41;100.00
14295;BME280;7231;59.370;18.016;2023-08-30T06:29:53;100374.22;;;16.51;100.00
14295;BME280;7231;59.370;18.016;2023-08-30T06:32:21;100368.91;;;16.56;100.00
14295;BME280;7231;59.370;18.016;2023-08-30T06:34:50;100360.06;;;16.59;100.00
14295;BME280;7231;59.370;18.016;2023-08-30T06:37:18;100358.28;;;16.64;100.00
14295;BME280;7231;59.370;18.016;2023-08-30T06:39:46;100350.38;;;16.67;100.00
14295;BME280;7231;59.370;18.016;2023-08-30T06:42:14;100346.81;;;16.62;100.00
14295;BME280;7231;59.370;18.016;2023-08-30T06:44:43;100351.25;;;16.67;100.00
14295;BME280;7231;59.370;18.016;2023-08-30T06:47:11;100323.03;;;16.55;100.00
14295;BME280;7231;59.370;18.016;2023-08-30T06:49:39;100347.69;;;16.74;100.00
14295;BME280;7231;59.370;18.016;2023-08-30T06:52:08;100340.63;;;16.75;100.00
14295;BME280;7231;59.370;18.016;2023-08-30T06:54:36;100343.25;;;16.75;100.00
14295;BME280;7231;59.370;18.016;2023-08-30T06:57:04;100347.69;;;16.73;100.00
14295;BME280;7231;59.370;18.016;2023-08-30T06:59:33;100354.75;;;16.72;100.00
14295;BME280;7231;59.370;18.016;2023-08-30T07:02:02;100347.72;;;16.67;100.00
14295;BME280;7231;59.370;18.016;2023-08-30T07:04:30;100349.47;;;16.68;100.00
14295;BME280;7231;59.370;18.016;2023-08-30T07:06:58;100355.66;;;16.67;100.00
14295;BME280;7231;59.370;18.016;2023-08-30T07:09:28;100338.00;;;16.61;100.00
14295;BME280;7231;59.370;18.016;2023-08-30T07:11:58;100345.94;;;16.60;100.00
14295;BME280;7231;59.370;18.016;2023-08-30T07:14:26;100345.06;;;16.59;100.00
14295;BME280;7231;59.370;18.016;2023-08-30T07:16:54;100353.91;;;16.58;100.00
14295;BME280;7231;59.370;18.016;2023-08-30T07:19:22;100340.69;;;16.53;100.00
14295;BME280;7231;59.370;18.016;2023-08-30T07:21:50;100331.88;;;16.48;100.00
14295;BME280;7231;59.370;18.016;2023-08-30T07:24:18;100347.72;;;16.59;100.00
14295;BME280;7231;59.370;18.016;2023-08-30T07:26:47;100252.69;;;16.06;100.00
14295;BME280;7231;59.370;18.016;2023-08-30T07:29:15;100322.19;;;16.44;100.00
14295;BME280;7231;59.370;18.016;2023-08-30T07:31:44;100356.53;;;16.64;100.00
14295;BME280;7231;59.370;18.016;2023-08-30T07:34:11;100349.50;;;16.66;100.00
14295;BME280;7231;59.370;18.016;2023-08-30T07:36:39;100345.06;;;16.62;100.00
14295;BME280;7231;59.370;18.016;2023-08-30T07:39:13;100352.13;;;16.68;100.00
14295;BME280;7231;59.370;18.016;2023-08-30T07:41:42;100344.19;;;16.68;100.00
14295;BME280;7231;59.370;18.016;2023-08-30T07:44:11;100346.81;;;16.72;100.00
14295;BME280;7231;59.370;18.016;2023-08-30T07:46:39;100290.44;;;16.46;100.00
14295;BME280;7231;59.370;18.016;2023-08-30T07:49:07;100347.66;;;16.82;100.00
14295;BME280;7231;59.370;18.016;2023-08-30T07:51:35;100348.50;;;16.88;100.00
14295;BME280;7231;59.370;18.016;2023-08-30T07:54:03;100345.81;;;16.96;100.00
14295;BME280;7231;59.370;18.016;2023-08-30T07:56:32;100351.06;;;17.02;100.00
14295;BME280;7231;59.370;18.016;2023-08-30T07:59:00;100346.59;;;17.09;100.00
14295;BME280;7231;59.370;18.016;2023-08-30T08:01:29;100339.47;;;17.18;100.00
14295;BME280;7231;59.370;18.016;2023-08-30T08:03:57;100334.13;;;17.28;100.00
14295;BME280;7231;59.370;18.016;2023-08-30T08:06:34;100301.47;;;17.21;100.00
14295;BME280;7231;59.370;18.016;2023-08-30T08:09:04;100325.09;;;17.51;100.00
14295;BME280;7231;59.370;18.016;2023-08-30T08:11:32;100332.06;;;17.62;100.00
14295;BME280;7231;59.370;18.016;2023-08-30T08:14:00;100329.34;;;17.72;100.00
14295;BME280;7231;59.370;18.016;2023-08-30T08:16:30;100334.50;;;17.88;100.00
14295;BME280;7231;59.370;18.016;2023-08-30T08:18:58;100332.56;;;18.05;100.00
14295;BME280;7231;59.370;18.016;2023-08-30T08:21:28;100334.19;;;18.18;100.00
14295;BME280;7231;59.370;18.016;2023-08-30T08:23:56;100336.69;;;18.30;100.00
14295;BME280;7231;59.370;18.016;2023-08-30T08:26:24;100318.91;;;18.37;100.00
14295;BME280;7231;59.370;18.016;2023-08-30T08:28:53;100330.13;;;18.59;100.00
14295;BME280;7231;59.370;18.016;2023-08-30T08:31:22;100282.50;;;18.46;100.00
14295;BME280;7231;59.370;18.016;2023-08-30T08:34:06;100327.97;;;18.91;100.00
14295;BME280;7231;59.370;18.016;2023-08-30T08:36:34;100313.72;;;18.95;100.00
14295;BME280;7231;59.370;18.016;2023-08-30T08:39:02;100325.88;;;19.11;98.92
14295;BME280;7231;59.370;18.016;2023-08-30T08:41:35;100327.56;;;19.19;97.14
14295;BME280;7231;59.370;18.016;2023-08-30T08:44:05;100323.22;;;19.13;96.22
14295;BME280;7231;59.370;18.016;2023-08-30T08:46:34;100326.78;;;19.10;96.17
14295;BME280;7231;59.370;18.016;2023-08-30T08:49:09;100320.56;;;19.13;96.12
14295;BME280;7231;59.370;18.016;2023-08-30T08:51:37;100321.41;;;19.15;95.59
14295;BME280;7231;59.370;18.016;2023-08-30T08:54:06;100309.09;;;19.09;95.34
14295;BME280;7231;59.370;18.016;2023-08-30T08:56:36;100324.78;;;19.26;94.14
14295;BME280;7231;59.370;18.016;2023-08-30T08:59:05;100311.47;;;19.28;93.91
14295;BME280;7231;59.370;18.016;2023-08-30T09:01:36;100321.81;;;19.46;93.43
14295;BME280;7231;59.370;18.016;2023-08-30T09:04:09;100317.25;;;19.56;92.03
14295;BME280;7231;59.370;18.016;2023-08-30T09:06:38;100312.75;;;19.59;90.92
14295;BME280;7231;59.370;18.016;2023-08-30T09:09:08;100331.94;;;19.76;90.25
14295;BME280;7231;59.370;18.016;2023-08-30T09:11:36;100317.47;;;19.93;89.41
14295;BME280;7231;59.370;18.016;2023-08-30T09:14:08;100307.44;;;20.07;88.74
14295;BME280;7231;59.370;18.016;2023-08-30T09:16:36;100315.94;;;20.26;89.02
14295;BME280;7231;59.370;18.016;2023-08-30T09:19:05;100317.34;;;20.45;88.22
14295;BME280;7231;59.370;18.016;2023-08-30T09:21:38;100306.47;;;20.56;87.10
14295;BME280;7231;59.370;18.016;2023-08-30T09:24:06;100307.16;;;20.65;86.94
14295;BME280;7231;59.370;18.016;2023-08-30T09:26:34;100305.03;;;21.18;88.24
14295;BME280;7231;59.370;18.016;2023-08-30T09:29:04;100309.53;;;21.87;85.70
14295;BME280;7231;59.370;18.016;2023-08-30T09:31:33;100304.69;;;22.01;82.17
14295;BME280;7231;59.370;18.016;2023-08-30T09:34:01;100285.44;;;21.90;80.86
14295;BME280;7231;59.370;18.016;2023-08-30T09:36:35;100311.81;;;22.02;79.32
14295;BME280;7231;59.370;18.016;2023-08-30T09:39:06;100304.19;;;21.87;78.77
14295;BME280;7231;59.370;18.016;2023-08-30T09:41:36;100318.34;;;21.91;78.72
14295;BME280;7231;59.370;18.016;2023-08-30T09:44:07;100317.50;;;21.89;77.46
14295;BME280;7231;59.370;18.016;2023-08-30T09:46:41;100326.53;;;21.83;78.25
14295;BME280;7231;59.370;18.016;2023-08-30T09:49:21;100319.25;;;21.90;77.83
14295;BME280;7231;59.370;18.016;2023-08-30T09:51:51;100326.72;;;22.11;77.27
14295;BME280;7231;59.370;18.016;2023-08-30T09:54:41;100321.47;;;22.39;77.71
14295;BME280;7231;59.370;18.016;2023-08-30T09:57:10;100322.09;;;22.78;78.22
14295;BME280;7231;59.370;18.016;2023-08-30T09:59:39;100297.16;;;23.07;76.01
14295;BME280;7231;59.370;18.016;2023-08-30T10:02:08;100309.28;;;23.19;73.41
14295;BME280;7231;59.370;18.016;2023-08-30T10:04:38;100322.31;;;23.02;72.43
14295;BME280;7231;59.370;18.016;2023-08-30T10:07:09;100317.28;;;22.91;71.33
14295;BME280;7231;59.370;18.016;2023-08-30T10:09:38;100313.06;;;22.84;72.06
14295;BME280;7231;59.370;18.016;2023-08-30T10:12:23;100314.53;;;22.94;72.08
14295;BME280;7231;59.370;18.016;2023-08-30T10:14:52;100303.63;;;23.00;71.18
14295;BME280;7231;59.370;18.016;2023-08-30T10:17:22;100300.72;;;23.08;70.68
14295;BME280;7231;59.370;18.016;2023-08-30T10:19:51;100305.25;;;23.06;69.90
14295;BME280;7231;59.370;18.016;2023-08-30T10:22:21;100303.03;;;22.90;69.82
14295;BME280;7231;59.370;18.016;2023-08-30T10:24:54;100314.72;;;22.88;69.33
14295;BME280;7231;59.370;18.016;2023-08-30T10:27:40;100308.72;;;22.78;69.47
14295;BME280;7231;59.370;18.016;2023-08-30T10:30:10;100316.97;;;22.71;69.16
14295;BME280;7231;59.370;18.016;2023-08-30T10:32:39;100317.72;;;22.46;68.75
14295;BME280;7231;59.370;18.016;2023-08-30T10:35:10;100320.84;;;22.29;68.73
14295;BME280;7231;59.370;18.016;2023-08-30T10:37:38;100318.31;;;22.25;68.86
14295;BME280;7231;59.370;18.016;2023-08-30T10:40:07;100320.38;;;22.15;67.84
14295;BME280;7231;59.370;18.016;2023-08-30T10:42:35;100318.78;;;22.08;69.00
14295;BME280;7231;59.370;18.016;2023-08-30T10:45:07;100310.59;;;22.14;69.63
14295;BME280;7231;59.370;18.016;2023-08-30T10:47:40;100321.81;;;22.27;69.18
14295;BME280;7231;59.370;18.016;2023-08-30T10:50:09;100307.28;;;22.37;69.03
14295;BME280;7231;59.370;18.016;2023-08-30T10:52:38;100303.91;;;22.61;68.10
14295;BME280;7231;59.370;18.016;2023-08-30T10:55:07;100321.56;;;22.96;67.45
14295;BME280;7231;59.370;18.016;2023-08-30T10:57:36;100310.38;;;23.12;67.12
14295;BME280;7231;59.370;18.016;2023-08-30T11:00:07;100311.84;;;23.22;66.68
14295;BME280;7231;59.370;18.016;2023-08-30T11:02:37;100313.59;;;23.23;65.75
14295;BME280;7231;59.370;18.016;2023-08-30T11:05:06;100313.75;;;23.18;64.56
14295;BME280;7231;59.370;18.016;2023-08-30T11:07:34;100311.13;;;23.17;64.66
14295;BME280;7231;59.370;18.016;2023-08-30T11:10:04;100314.72;;;23.16;64.94
14295;BME280;7231;59.370;18.016;2023-08-30T11:12:33;100307.63;;;23.15;65.56
14295;BME280;7231;59.370;18.016;2023-08-30T11:15:02;100290.59;;;23.17;66.17
14295;BME280;7231;59.370;18.016;2023-08-30T11:17:31;100314.56;;;23.47;65.65
14295;BME280;7231;59.370;18.016;2023-08-30T11:20:06;100312.81;;;23.46;64.72
14295;BME280;7231;59.370;18.016;2023-08-30T11:22:35;100296.91;;;23.15;65.02
14295;BME280;7231;59.370;18.016;2023-08-30T11:25:05;100307.97;;;23.04;64.52
14295;BME280;7231;59.370;18.016;2023-08-30T11:27:33;100308.66;;;22.81;64.85
14295;BME280;7231;59.370;18.016;2023-08-30T11:30:01;100310.38;;;22.53;65.78
14295;BME280;7231;59.370;18.016;2023-08-30T11:32:33;100317.06;;;22.38;66.74
14295;BME280;7231;59.370;18.016;2023-08-30T11:35:03;100316.56;;;22.24;66.36
14295;BME280;7231;59.370;18.016;2023-08-30T11:37:31;100310.59;;;22.14;66.67
14295;BME280;7231;59.370;18.016;2023-08-30T11:40:01;100305.59;;;22.02;66.97
14295;BME280;7231;59.370;18.016;2023-08-30T11:42:30;100312.16;;;21.89;66.63
14295;BME280;7231;59.370;18.016;2023-08-30T11:44:58;100291.97;;;21.79;65.91
14295;BME280;7231;59.370;18.016;2023-08-30T11:47:27;100300.13;;;21.73;66.24
14295;BME280;7231;59.370;18.016;2023-08-30T11:49:56;100276.00;;;21.43;66.49
14295;BME280;7231;59.370;18.016;2023-08-30T11:52:25;100304.44;;;21.44;66.22
14295;BME280;7231;59.370;18.016;2023-08-30T11:54:54;100297.72;;;21.28;66.69
14295;BME280;7231;59.370;18.016;2023-08-30T11:57:22;100301.47;;;21.18;67.33
14295;BME280;7231;59.370;18.016;2023-08-30T11:59:52;100298.97;;;21.12;68.13
14295;BME280;7231;59.370;18.016;2023-08-30T12:02:21;100292.91;;;21.05;68.28
14295;BME280;7231;59.370;18.016;2023-08-30T12:04:50;100291.28;;;20.98;68.31
14295;BME280;7231;59.370;18.016;2023-08-30T12:07:25;100295.00;;;20.91;68.67
14295;BME280;7231;59.370;18.016;2023-08-30T12:10:03;100296.09;;;20.82;68.88
14295;BME280;7231;59.370;18.016;2023-08-30T12:12:32;100287.56;;;20.68;69.41
14295;BME280;7231;59.370;18.016;2023-08-30T12:15:00;100287.63;;;20.65;70.44
14295;BME280;7231;59.370;18.016;2023-08-30T12:17:29;100297.44;;;20.63;71.07
14295;BME280;7231;59.370;18.016;2023-08-30T12:19:58;100294.91;;;20.57;70.63
14295;BME280;7231;59.370;18.016;2023-08-30T12:22:37;100293.28;;;20.50;71.13
14295;BME280;7231;59.370;18.016;2023-08-30T12:25:15;100291.59;;;20.46;71.34
14295;BME280;7231;59.370;18.016;2023-08-30T12:27:44;100253.09;;;20.19;71.21
14295;BME280;7231;59.370;18.016;2023-08-30T12:30:13;100284.66;;;20.38;71.25
14295;BME280;7231;59.370;18.016;2023-08-30T12:32:43;100291.72;;;20.39;71.14
14295;BME280;7231;59.370;18.016;2023-08-30T12:35:12;100257.50;;;20.20;71.25
14295;BME280;7231;59.370;18.016;2023-08-30T12:37:42;100266.25;;;20.25;71.03
14295;BME280;7231;59.370;18.016;2023-08-30T12:40:11;100287.28;;;20.40;71.26
14295;BME280;7231;59.370;18.016;2023-08-30T12:42:39;100288.16;;;20.40;71.89
14295;BME280;7231;59.370;18.016;2023-08-30T12:45:08;100279.34;;;20.35;71.57
14295;BME280;7231;59.370;18.016;2023-08-30T12:47:37;100297.97;;;20.38;71.55
14295;BME280;7231;59.370;18.016;2023-08-30T12:50:05;100282.97;;;20.33;71.60
14295;BME280;7231;59.370;18.016;2023-08-30T12:52:34;100291.03;;;20.28;71.80
14295;BME280;7231;59.370;18.016;2023-08-30T12:55:03;100293.75;;;20.27;71.66